createdAt,value
2022-09-14T00:01:26.876Z,2.97
2022-09-14T00:03:56.608Z,3.25
2022-09-14T00:06:24.746Z,2.90
2022-09-14T00:11:24.851Z,2.97
2022-09-14T00:13:53.544Z,2.95
2022-09-14T00:16:23.567Z,3.85
2022-09-14T00:18:52.912Z,3.40
2022-09-14T00:21:21.377Z,2.88
2022-09-14T00:23:49.195Z,3.08
2022-09-14T00:26:20.576Z,3.20
2022-09-14T00:28:50.698Z,3.70
2022-09-14T00:31:19.130Z,3.88
2022-09-14T00:33:48.695Z,4.03
2022-09-14T00:36:18.564Z,3.42
2022-09-14T00:38:47.534Z,3.47
2022-09-14T00:41:18.810Z,3.60
2022-09-14T00:43:54.923Z,3.95
2022-09-14T00:46:23.132Z,3.85
2022-09-14T00:48:52.004Z,3.28
2022-09-14T00:51:22.165Z,3.67
2022-09-14T00:53:50.666Z,3.35
2022-09-14T00:56:19.878Z,3.20
2022-09-14T00:58:51.979Z,4.13
2022-09-14T01:01:21.018Z,3.53
2022-09-14T01:03:49.013Z,3.95
2022-09-14T01:06:23.338Z,3.20
2022-09-14T01:09:05.169Z,3.15
2022-09-14T01:11:49.534Z,3.75
2022-09-14T01:14:28.157Z,3.35
2022-09-14T01:17:03.473Z,3.17
2022-09-14T01:20:01.369Z,2.78
2022-09-14T01:22:37.021Z,3.38
2022-09-14T01:25:16.672Z,3.35
2022-09-14T01:27:47.657Z,2.75
2022-09-14T01:30:20.653Z,3.13
2022-09-14T01:32:54.701Z,2.40
2022-09-14T01:35:28.424Z,3.03
2022-09-14T01:38:01.846Z,2.63
2022-09-14T01:40:34.669Z,2.83
2022-09-14T01:43:10.873Z,3.08
2022-09-14T01:45:43.052Z,2.40
2022-09-14T01:48:16.067Z,3.08
2022-09-14T01:50:48.031Z,2.65
2022-09-14T01:53:21.001Z,2.85
2022-09-14T01:55:56.767Z,2.88
2022-09-14T01:58:31.573Z,2.75
2022-09-14T02:01:02.913Z,3.17
2022-09-14T02:03:35.306Z,2.75
2022-09-14T02:06:15.588Z,2.75
2022-09-14T02:08:43.681Z,2.80
2022-09-14T02:11:11.559Z,3.50
2022-09-14T02:13:40.828Z,2.75
2022-09-14T02:16:08.674Z,3.80
2022-09-14T02:18:36.593Z,3.22
2022-09-14T02:21:10.171Z,3.47
2022-09-14T02:23:38.671Z,3.20
2022-09-14T02:26:06.692Z,3.38
2022-09-14T02:31:12.908Z,2.95
2022-09-14T02:33:49.512Z,3.00
2022-09-14T02:36:23.175Z,2.47
2022-09-14T02:38:57.567Z,3.13
2022-09-14T02:41:46.780Z,2.72
2022-09-14T02:44:22.891Z,3.47
2022-09-14T02:46:59.697Z,2.65
2022-09-14T02:49:36.856Z,3.80
2022-09-14T02:52:13.145Z,3.53
2022-09-14T02:54:48.498Z,3.33
2022-09-14T02:57:16.943Z,4.80
2022-09-14T02:59:44.781Z,2.95
2022-09-14T03:02:14.164Z,3.90
2022-09-14T03:04:42.336Z,3.72
2022-09-14T03:09:38.238Z,3.55
2022-09-14T03:12:06.190Z,4.07
2022-09-14T03:14:33.886Z,3.88
2022-09-14T03:17:01.666Z,4.30
2022-09-14T03:19:30.921Z,4.60
2022-09-14T03:21:58.826Z,4.57
2022-09-14T03:24:26.665Z,4.63
2022-09-14T03:26:54.423Z,4.60
2022-09-14T03:29:22.466Z,4.40
2022-09-14T03:31:50.431Z,4.60
2022-09-14T03:34:18.289Z,4.18
2022-09-14T03:36:47.316Z,3.97
2022-09-14T03:39:15.139Z,4.78
2022-09-14T03:41:42.827Z,4.70
2022-09-14T03:44:11.311Z,5.60
2022-09-14T03:46:39.318Z,4.30
2022-09-14T03:49:07.215Z,5.25
2022-09-14T03:51:35.456Z,4.38
2022-09-14T03:54:05.396Z,3.97
2022-09-14T03:56:33.223Z,5.25
2022-09-14T03:59:01.046Z,4.47
2022-09-14T04:01:29.054Z,4.40
2022-09-14T04:03:56.933Z,5.18
2022-09-14T04:06:26.073Z,4.00
2022-09-14T04:08:55.317Z,4.82
2022-09-14T04:11:25.886Z,4.47
2022-09-14T04:13:54.172Z,4.45
2022-09-14T04:16:22.695Z,4.35
2022-09-14T04:18:50.687Z,4.68
2022-09-14T04:21:21.158Z,4.72
2022-09-14T04:26:38.660Z,4.43
2022-09-14T04:29:07.115Z,4.80
2022-09-14T04:31:34.916Z,4.25
2022-09-14T04:34:02.717Z,4.07
2022-09-14T04:36:31.748Z,4.68
2022-09-14T04:39:01.235Z,4.47
2022-09-14T04:41:30.671Z,4.50
2022-09-14T04:44:00.718Z,4.47
2022-09-14T04:46:30.843Z,4.70
2022-09-14T04:48:59.114Z,3.90
2022-09-14T04:51:29.535Z,4.93
2022-09-14T04:53:59.415Z,5.05
2022-09-14T04:56:28.587Z,5.00
2022-09-14T04:59:00.657Z,4.25
2022-09-14T05:01:30.476Z,4.00
2022-09-14T05:03:59.725Z,4.80
2022-09-14T05:06:29.417Z,4.90
2022-09-14T05:08:57.898Z,4.90
2022-09-14T05:11:27.844Z,5.47
2022-09-14T05:13:57.082Z,4.22
2022-09-14T05:16:29.262Z,5.10
2022-09-14T05:18:58.897Z,5.78
2022-09-14T05:21:26.967Z,5.88
2022-09-14T05:23:56.084Z,4.95
2022-09-14T05:26:25.081Z,4.65
2022-09-14T05:28:55.331Z,4.93
2022-09-14T05:31:24.305Z,4.95
2022-09-14T05:33:54.437Z,4.93
2022-09-14T05:36:22.487Z,5.28
2022-09-14T05:38:50.472Z,5.60
2022-09-14T05:41:18.610Z,5.07
2022-09-14T05:46:15.980Z,4.00
2022-09-14T05:48:44.269Z,4.55
2022-09-14T05:51:15.812Z,4.63
2022-09-14T05:53:43.946Z,3.72
2022-09-14T05:56:13.751Z,4.20
2022-09-14T05:58:42.596Z,4.90
2022-09-14T06:01:13.209Z,4.30
2022-09-14T06:03:42.818Z,4.75
2022-09-14T06:06:12.322Z,4.70
2022-09-14T06:08:41.618Z,4.68
2022-09-14T06:11:12.708Z,4.28
2022-09-14T06:13:40.634Z,4.45
2022-09-14T06:16:11.432Z,4.20
2022-09-14T06:18:40.760Z,4.97
2022-09-14T06:21:10.125Z,4.28
2022-09-14T06:23:38.571Z,4.07
2022-09-14T06:26:08.297Z,4.88
2022-09-14T06:28:36.680Z,4.35
2022-09-14T06:31:07.601Z,3.75
2022-09-14T06:33:35.943Z,4.20
2022-09-14T06:36:07.483Z,4.13
2022-09-14T06:38:35.283Z,4.20
2022-09-14T06:41:05.403Z,3.92
2022-09-14T06:43:37.119Z,4.78
2022-09-14T06:46:06.772Z,4.10
2022-09-14T06:48:36.617Z,4.70
2022-09-14T06:51:13.525Z,4.07
2022-09-14T06:53:41.398Z,3.80
2022-09-14T06:56:09.592Z,3.75
2022-09-14T06:58:39.256Z,3.83
2022-09-14T07:01:09.448Z,4.13
2022-09-14T07:03:39.035Z,4.72
2022-09-14T07:06:09.451Z,3.63
2022-09-14T07:08:38.949Z,3.72
2022-09-14T07:11:09.686Z,3.65
2022-09-14T07:13:39.020Z,3.28
2022-09-14T07:16:08.108Z,3.78
2022-09-14T07:18:36.458Z,4.25
2022-09-14T07:21:05.870Z,3.70
2022-09-14T07:23:34.282Z,3.90
2022-09-14T07:26:05.136Z,3.85
2022-09-14T07:28:33.528Z,2.95
2022-09-14T07:31:03.466Z,3.40
2022-09-14T07:33:31.972Z,3.40
2022-09-14T07:36:06.777Z,4.50
2022-09-14T07:38:51.032Z,3.28
2022-09-14T07:41:20.534Z,3.20
2022-09-14T07:43:51.084Z,2.90
2022-09-14T07:46:21.028Z,3.15
2022-09-14T07:48:50.117Z,3.65
2022-09-14T07:51:18.103Z,3.00
2022-09-14T07:53:46.011Z,3.40
2022-09-14T07:56:16.685Z,3.78
2022-09-14T07:58:45.382Z,3.47
2022-09-14T08:01:15.279Z,2.97
2022-09-14T08:03:46.062Z,2.75
2022-09-14T08:06:16.505Z,3.03
2022-09-14T08:08:47.291Z,3.30
2022-09-14T08:11:16.800Z,2.53
2022-09-14T08:13:46.181Z,3.30
2022-09-14T08:16:14.495Z,3.20
2022-09-14T08:18:42.340Z,3.13
2022-09-14T08:21:13.762Z,3.10
2022-09-14T08:23:42.985Z,2.72
2022-09-14T08:26:12.562Z,2.97
2022-09-14T08:28:40.956Z,4.88
2022-09-14T08:31:10.710Z,2.55
2022-09-14T08:33:40.295Z,2.90
2022-09-14T08:36:10.049Z,2.63
2022-09-14T08:38:39.599Z,2.60
2022-09-14T08:41:17.493Z,2.60
2022-09-14T08:43:45.780Z,2.75
2022-09-14T08:46:22.700Z,2.15
2022-09-14T08:48:50.944Z,2.50
2022-09-14T08:51:19.036Z,2.30
2022-09-14T08:53:48.471Z,2.63
2022-09-14T08:56:19.345Z,1.77
2022-09-14T08:59:10.186Z,2.45
2022-09-14T09:01:44.817Z,2.35
2022-09-14T09:06:57.682Z,2.72
2022-09-14T09:09:34.014Z,1.63
2022-09-14T09:12:02.450Z,2.28
2022-09-14T09:14:36.770Z,2.38
2022-09-14T09:17:11.577Z,2.13
2022-09-14T09:19:50.900Z,2.83
2022-09-14T09:22:22.815Z,1.50
2022-09-14T09:24:54.873Z,2.00
2022-09-14T09:27:25.195Z,2.47
2022-09-14T09:29:53.045Z,1.83
2022-09-14T09:32:23.454Z,2.08
2022-09-14T09:34:51.539Z,2.47
2022-09-14T09:39:49.605Z,2.58
2022-09-14T09:42:22.813Z,2.38
2022-09-14T09:45:03.876Z,2.00
2022-09-14T09:47:34.743Z,2.15
2022-09-14T09:50:05.332Z,2.03
2022-09-14T09:52:34.711Z,2.80
2022-09-14T09:55:05.507Z,2.95
2022-09-14T09:57:36.498Z,2.03
2022-09-14T10:00:20.294Z,2.33
2022-09-14T10:02:48.590Z,1.88
2022-09-14T10:05:28.975Z,2.38
2022-09-14T10:07:59.844Z,2.55
2022-09-14T10:10:42.872Z,2.03
2022-09-14T10:13:24.826Z,2.00
2022-09-14T10:15:52.641Z,2.35
2022-09-14T10:18:21.603Z,1.50
2022-09-14T10:21:09.645Z,2.08
2022-09-14T10:23:39.618Z,1.80
2022-09-14T10:26:28.295Z,1.92
2022-09-14T10:29:26.211Z,1.90
2022-09-14T10:31:57.515Z,1.95
2022-09-14T10:34:25.405Z,1.60
2022-09-14T10:37:02.500Z,1.77
2022-09-14T10:39:36.885Z,2.15
2022-09-14T10:42:12.531Z,2.05
2022-09-14T10:45:08.751Z,1.58
2022-09-14T10:48:16.592Z,2.05
2022-09-14T10:50:55.735Z,1.90
2022-09-14T10:53:41.794Z,2.15
2022-09-14T10:56:18.231Z,1.67
2022-09-14T10:59:07.684Z,2.00
2022-09-14T11:01:53.262Z,1.67
2022-09-14T11:04:39.348Z,2.25
2022-09-14T11:07:12.465Z,2.08
2022-09-14T11:09:48.400Z,2.00
2022-09-14T11:12:23.279Z,2.05
2022-09-14T11:15:03.909Z,2.17
2022-09-14T11:17:55.023Z,2.33
2022-09-14T11:20:32.132Z,1.90
2022-09-14T11:23:14.497Z,1.70
2022-09-14T11:25:48.055Z,1.73
2022-09-14T11:28:19.868Z,2.35
2022-09-14T11:30:55.861Z,2.38
2022-09-14T11:33:34.046Z,1.80
2022-09-14T11:36:06.068Z,2.42
2022-09-14T11:38:37.824Z,3.30
2022-09-14T11:41:16.576Z,3.13
2022-09-14T11:43:49.356Z,1.75
2022-09-14T11:46:21.292Z,2.15
2022-09-14T11:48:54.977Z,2.25
2022-09-14T11:51:28.504Z,2.13
2022-09-14T11:53:56.407Z,2.13
2022-09-14T11:56:27.400Z,1.92
2022-09-14T11:58:57.756Z,2.13
2022-09-14T12:01:35.673Z,2.30
2022-09-14T12:04:13.921Z,2.13
2022-09-14T12:06:56.644Z,1.88
2022-09-14T12:09:53.613Z,2.15
2022-09-14T12:12:37.686Z,2.22
2022-09-14T12:15:19.283Z,2.28
2022-09-14T12:17:47.301Z,2.92
2022-09-14T12:20:35.109Z,2.45
2022-09-14T12:23:13.559Z,1.98
2022-09-14T12:25:54.045Z,1.55
2022-09-14T12:28:40.601Z,1.92
2022-09-14T12:31:16.131Z,1.70
2022-09-14T12:34:06.305Z,1.92
2022-09-14T12:37:08.743Z,1.73
2022-09-14T12:39:39.911Z,1.65
2022-09-14T12:42:28.274Z,2.08
2022-09-14T12:44:56.186Z,2.03
2022-09-14T12:47:51.011Z,1.95
2022-09-14T12:50:22.116Z,2.00
2022-09-14T12:53:28.447Z,1.67
2022-09-14T12:56:04.276Z,2.15
2022-09-14T12:58:52.129Z,1.98
2022-09-14T13:01:30.018Z,1.92
2022-09-14T13:03:59.022Z,2.05
2022-09-14T13:06:34.874Z,1.85
2022-09-14T13:09:06.309Z,2.22
2022-09-14T13:14:17.579Z,1.65
2022-09-14T13:16:47.809Z,2.17
2022-09-14T13:19:34.190Z,1.77
2022-09-14T13:22:03.891Z,2.30
2022-09-14T13:24:38.735Z,3.03
2022-09-14T13:27:20.730Z,2.00
2022-09-14T13:29:48.915Z,1.95
2022-09-14T13:34:48.115Z,1.45
2022-09-14T13:37:17.271Z,1.98
2022-09-14T13:39:51.326Z,2.08
2022-09-14T13:42:21.890Z,2.35
2022-09-14T13:44:50.820Z,2.05
2022-09-14T13:47:22.941Z,1.90
2022-09-14T13:49:52.407Z,1.98
2022-09-14T13:52:56.975Z,1.80
2022-09-14T13:55:24.285Z,1.50
2022-09-14T13:58:08.216Z,2.35
2022-09-14T14:00:48.958Z,2.33
2022-09-14T14:03:26.650Z,2.13
2022-09-14T14:05:54.945Z,2.38
2022-09-14T14:10:57.050Z,1.92
2022-09-14T14:13:31.443Z,1.67
2022-09-14T14:16:14.859Z,1.98
2022-09-14T14:18:44.089Z,2.05
2022-09-14T14:21:17.395Z,1.75
2022-09-14T14:24:09.269Z,2.65
2022-09-14T14:26:33.797Z,1.95
2022-09-14T14:29:10.800Z,2.55
2022-09-14T14:31:38.730Z,2.47
2022-09-14T14:34:18.325Z,3.05
2022-09-14T14:36:48.071Z,2.60
2022-09-14T14:39:15.851Z,3.05
2022-09-14T14:41:43.804Z,3.53
2022-09-14T14:44:15.139Z,6.68
2022-09-14T14:46:44.200Z,2.97
2022-09-14T14:49:13.483Z,2.58
2022-09-14T14:51:41.754Z,3.63
2022-09-14T14:54:10.159Z,2.45
2022-09-14T14:56:38.384Z,2.58
2022-09-14T15:01:46.134Z,2.47
2022-09-14T15:04:14.048Z,2.88
2022-09-14T15:06:41.946Z,3.45
2022-09-14T15:09:14.699Z,3.35
2022-09-14T15:11:42.635Z,2.83
2022-09-14T15:14:12.645Z,2.75
2022-09-14T15:16:42.474Z,2.40
2022-09-14T15:19:11.388Z,3.05
2022-09-14T15:21:39.908Z,2.83
2022-09-14T15:24:08.464Z,2.88
2022-09-14T15:26:37.150Z,3.47
2022-09-14T15:29:05.842Z,3.35
2022-09-14T15:31:33.947Z,2.75
2022-09-14T15:34:03.176Z,3.15
2022-09-14T15:36:39.295Z,2.40
2022-09-14T15:39:09.167Z,2.97
2022-09-14T15:41:37.042Z,2.92
2022-09-14T15:44:05.414Z,3.15
2022-09-14T15:46:33.390Z,2.92
2022-09-14T15:49:07.824Z,3.53
2022-09-14T15:51:35.682Z,3.25
2022-09-14T15:54:04.429Z,3.08
2022-09-14T15:56:32.531Z,2.90
2022-09-14T16:01:29.631Z,2.40
2022-09-14T16:03:58.691Z,2.65
2022-09-14T16:06:28.993Z,2.72
2022-09-14T16:08:57.688Z,2.67
2022-09-14T16:11:25.641Z,2.67
2022-09-14T16:13:53.779Z,2.78
2022-09-14T16:16:22.297Z,2.17
2022-09-14T16:18:50.862Z,2.53
2022-09-14T16:21:22.025Z,2.08
2022-09-14T16:23:54.431Z,2.97
2022-09-14T16:26:25.555Z,2.42
2022-09-14T16:28:54.555Z,2.35
2022-09-14T16:31:24.384Z,2.47
2022-09-14T16:33:56.340Z,2.47
2022-09-14T16:36:27.090Z,2.75
2022-09-14T16:38:57.610Z,2.80
2022-09-14T16:41:27.476Z,2.78
2022-09-14T16:43:56.726Z,3.03
2022-09-14T16:46:25.335Z,2.75
2022-09-14T16:48:53.712Z,2.38
2022-09-14T16:51:23.277Z,2.53
2022-09-14T16:53:52.249Z,2.58
2022-09-14T16:56:23.012Z,2.53
2022-09-14T16:58:52.723Z,2.58
2022-09-14T17:01:22.197Z,2.45
2022-09-14T17:03:51.887Z,2.67
2022-09-14T17:06:21.323Z,2.60
2022-09-14T17:08:49.422Z,2.42
2022-09-14T17:11:18.420Z,2.53
2022-09-14T17:13:47.855Z,2.90
2022-09-14T17:16:17.458Z,3.15
2022-09-14T17:18:48.717Z,2.70
2022-09-14T17:21:18.624Z,2.65
2022-09-14T17:23:46.702Z,3.00
2022-09-14T17:26:17.694Z,2.50
2022-09-14T17:28:47.513Z,2.03
2022-09-14T17:31:17.073Z,2.88
2022-09-14T17:33:45.159Z,2.38
2022-09-14T17:36:13.172Z,1.92
2022-09-14T17:38:42.403Z,2.45
2022-09-14T17:41:11.906Z,2.80
2022-09-14T17:43:40.618Z,2.75
2022-09-14T17:46:13.656Z,2.58
2022-09-14T17:48:43.049Z,2.70
2022-09-14T17:51:14.110Z,2.58
2022-09-14T17:53:43.739Z,1.92
2022-09-14T17:56:13.369Z,2.95
2022-09-14T17:58:42.093Z,2.65
2022-09-14T18:01:14.231Z,2.50
2022-09-14T18:03:44.629Z,2.35
2022-09-14T18:06:14.323Z,3.53
2022-09-14T18:08:42.790Z,2.53
2022-09-14T18:11:12.947Z,3.20
2022-09-14T18:13:42.249Z,2.17
2022-09-14T18:16:12.507Z,2.30
2022-09-14T18:18:40.439Z,2.28
2022-09-14T18:21:08.746Z,2.20
2022-09-14T18:23:37.036Z,2.65
2022-09-14T18:26:05.550Z,1.92
2022-09-14T18:28:34.197Z,2.50
2022-09-14T18:31:02.405Z,1.90
2022-09-14T18:35:59.220Z,1.52
2022-09-14T18:38:27.298Z,1.67
2022-09-14T18:40:55.033Z,2.25
2022-09-14T18:43:23.067Z,2.33
2022-09-14T18:45:50.999Z,1.98
2022-09-14T18:48:18.883Z,2.15
2022-09-14T18:50:48.178Z,1.92
2022-09-14T18:53:16.046Z,2.10
2022-09-14T18:55:43.743Z,1.80
2022-09-14T18:58:11.540Z,1.80
2022-09-14T19:00:46.058Z,2.28
2022-09-14T19:03:14.225Z,2.08
2022-09-14T19:05:42.995Z,2.05
2022-09-14T19:08:13.583Z,2.20
2022-09-14T19:10:41.528Z,2.42
2022-09-14T19:13:09.404Z,2.58
2022-09-14T19:15:39.890Z,1.83
2022-09-14T19:18:07.925Z,2.08
2022-09-14T19:21:04.822Z,2.45
2022-09-14T19:23:28.421Z,1.77
2022-09-14T19:25:56.200Z,2.20
2022-09-14T19:28:24.295Z,2.42
2022-09-14T19:33:19.976Z,2.25
2022-09-14T19:35:47.761Z,2.40
2022-09-14T19:38:15.489Z,2.47
2022-09-14T19:40:53.340Z,2.70
2022-09-14T19:43:21.507Z,2.20
2022-09-14T19:45:49.514Z,2.28
2022-09-14T19:48:17.476Z,2.78
2022-09-14T19:50:48.059Z,3.28
2022-09-14T19:53:15.964Z,3.53
2022-09-14T19:55:43.877Z,2.55
2022-09-14T19:58:13.096Z,2.58
2022-09-14T20:00:40.884Z,2.00
2022-09-14T20:03:08.953Z,2.63
2022-09-14T20:05:36.921Z,2.40
2022-09-14T20:08:04.868Z,2.63
2022-09-14T20:10:32.741Z,2.75
2022-09-14T20:13:00.594Z,3.83
2022-09-14T20:15:31.755Z,2.30
2022-09-14T20:17:59.630Z,2.28
2022-09-14T20:20:27.507Z,2.38
2022-09-14T20:22:55.379Z,2.33
2022-09-14T20:25:23.285Z,2.92
2022-09-14T20:27:51.101Z,2.35
2022-09-14T20:30:18.985Z,2.42
2022-09-14T20:32:48.229Z,2.75
2022-09-14T20:35:16.148Z,2.00
2022-09-14T20:37:44.022Z,2.33
2022-09-14T20:40:12.419Z,2.83
2022-09-14T20:42:40.313Z,2.53
2022-09-14T20:45:09.551Z,1.85
2022-09-14T20:47:37.462Z,2.45
2022-09-14T20:50:07.573Z,2.22
2022-09-14T20:52:36.438Z,2.40
2022-09-14T20:55:04.534Z,2.45
2022-09-14T20:57:34.058Z,2.58
2022-09-14T21:00:01.892Z,2.80
2022-09-14T21:02:30.531Z,2.20
2022-09-14T21:05:00.065Z,3.00
2022-09-14T21:07:29.317Z,2.10
2022-09-14T21:09:57.264Z,2.40
2022-09-14T21:12:25.124Z,2.90
2022-09-14T21:14:52.812Z,4.22
2022-09-14T21:17:21.902Z,4.47
2022-09-14T21:19:49.730Z,4.88
2022-09-14T21:22:17.491Z,5.57
2022-09-14T21:24:46.618Z,5.03
2022-09-14T21:27:14.463Z,3.58
2022-09-14T21:29:42.447Z,3.38
2022-09-14T21:32:10.442Z,3.70
2022-09-14T21:34:38.235Z,4.20
2022-09-14T21:37:06.128Z,2.60
2022-09-14T21:39:34.250Z,3.08
2022-09-14T21:42:03.374Z,3.17
2022-09-14T21:44:31.995Z,5.05
2022-09-14T21:47:00.353Z,3.67
2022-09-14T21:49:28.498Z,2.33
2022-09-14T21:51:56.232Z,2.67
2022-09-14T21:54:24.074Z,2.78
2022-09-14T21:56:53.480Z,2.53
2022-09-14T21:59:24.015Z,2.17
2022-09-14T22:01:52.411Z,2.88
2022-09-14T22:04:23.086Z,2.63
2022-09-14T22:06:52.229Z,3.03
2022-09-14T22:09:22.475Z,2.67
2022-09-14T22:11:50.388Z,2.85
2022-09-14T22:14:23.016Z,2.47
2022-09-14T22:16:50.926Z,3.45
2022-09-14T22:19:22.806Z,2.95
2022-09-14T22:21:52.058Z,3.47
2022-09-14T22:24:22.996Z,3.50
2022-09-14T22:26:51.205Z,2.67
2022-09-14T22:31:49.202Z,2.03
2022-09-14T22:34:17.814Z,3.20
2022-09-14T22:36:46.034Z,3.00
2022-09-14T22:41:42.035Z,2.08
2022-09-14T22:44:10.226Z,2.97
2022-09-14T22:51:35.969Z,2.72
2022-09-14T22:54:03.757Z,2.70
2022-09-14T22:56:33.880Z,2.25
2022-09-14T22:59:03.018Z,2.63
2022-09-14T23:01:34.654Z,2.35
2022-09-14T23:04:05.229Z,2.50
2022-09-14T23:06:38.021Z,2.78
2022-09-14T23:09:06.243Z,2.80
2022-09-14T23:11:34.134Z,2.97
2022-09-14T23:14:02.107Z,3.17
2022-09-14T23:16:31.722Z,2.90
2022-09-14T23:19:01.462Z,2.38
2022-09-14T23:21:31.076Z,2.35
2022-09-14T23:24:02.628Z,2.85
2022-09-14T23:26:31.234Z,2.42
2022-09-14T23:29:00.958Z,2.78
2022-09-14T23:31:30.546Z,2.53
2022-09-14T23:34:00.735Z,2.63
2022-09-14T23:36:29.072Z,2.30
2022-09-14T23:38:57.483Z,2.83
2022-09-14T23:41:27.610Z,3.15
2022-09-14T23:43:55.766Z,3.08
2022-09-14T23:48:51.514Z,4.13
2022-09-14T23:51:19.861Z,2.42
2022-09-14T23:53:47.817Z,3.17
2022-09-14T23:56:16.123Z,2.95
